Crumpler, North Carolina
Current Conditions -  °F | °C
As of 5:15 PM on Tuesday 25 Nov 2014 (Local Time) from KGEV Reporting Station
Clear Clear  
Wind Chill: 48°   Ceiling: Unl
Heat Index: 48°   Visibility: 10mi
Dew Point: 14°   Wind: 3mph
Humidity: 26%   Direction: 290°WNW
Pressure: 30.04"   Gusts: NA
Location:  36.5°N, 81.39°W
Report Text: KGEV 252215Z AUTO 29003KT 10SM CLR 09/M10 A3004 RMK AO2 T00911098
Loading
Personal Weather Stations






























Interactive Weather Map New forecast layout! Learn more

10-Day Weather Forecast

Advertisements
Track Severe Weather on mobile